createdAt,value
2019-05-12T00:01:52.113Z,23.23
2019-05-12T00:04:24.108Z,24.97
2019-05-12T00:06:58.387Z,23.27
2019-05-12T00:09:28.982Z,22.80
2019-05-12T00:12:00.501Z,23.20
2019-05-12T00:14:32.074Z,23.10
2019-05-12T00:17:03.800Z,22.63
2019-05-12T00:19:37.702Z,22.37
2019-05-12T00:22:10.967Z,22.57
2019-05-12T00:24:42.736Z,25.50
2019-05-12T00:27:17.979Z,23.60
2019-05-12T00:29:49.635Z,24.13
2019-05-12T00:32:21.144Z,26.10
2019-05-12T00:34:52.804Z,23.57
2019-05-12T00:37:24.145Z,23.00
2019-05-12T00:39:55.389Z,24.07
2019-05-12T00:42:28.752Z,24.40
2019-05-12T00:45:00.764Z,24.13
2019-05-12T00:47:32.247Z,24.03
2019-05-12T00:50:03.972Z,24.87
2019-05-12T00:52:35.605Z,23.63
2019-05-12T00:55:08.137Z,24.80
2019-05-12T00:57:39.831Z,25.17
2019-05-12T01:00:12.533Z,24.90
2019-05-12T01:02:44.228Z,25.27
2019-05-12T01:05:17.749Z,25.67
2019-05-12T01:07:51.258Z,24.63
2019-05-12T01:10:22.112Z,25.70
2019-05-12T01:12:54.112Z,24.90
2019-05-12T01:15:28.626Z,26.03
2019-05-12T01:18:01.048Z,26.03
2019-05-12T01:20:32.799Z,26.97
2019-05-12T01:23:04.512Z,24.83
2019-05-12T01:25:36.453Z,26.37
2019-05-12T01:28:08.752Z,25.17
2019-05-12T01:30:41.108Z,24.00
2019-05-12T01:33:13.067Z,27.53
2019-05-12T01:35:45.047Z,25.40
2019-05-12T01:38:18.302Z,25.10
2019-05-12T01:40:50.346Z,25.97
2019-05-12T01:43:22.496Z,26.30
2019-05-12T01:45:54.472Z,25.57
2019-05-12T01:48:25.666Z,25.50
2019-05-12T01:50:57.973Z,28.77
2019-05-12T01:53:30.974Z,25.63
2019-05-12T01:56:02.511Z,25.77
2019-05-12T01:58:34.392Z,26.37
2019-05-12T02:01:08.053Z,24.93
2019-05-12T02:03:38.696Z,25.33
2019-05-12T02:06:10.675Z,25.60
2019-05-12T02:08:47.901Z,27.90
2019-05-12T02:11:34.848Z,27.33
2019-05-12T02:14:09.319Z,25.47
2019-05-12T02:16:41.485Z,25.87
2019-05-12T02:19:13.804Z,27.57
2019-05-12T02:21:45.671Z,25.10
2019-05-12T02:24:26.804Z,26.13
2019-05-12T02:26:51.098Z,24.73
2019-05-12T02:29:22.574Z,25.80
2019-05-12T02:31:54.170Z,27.13
2019-05-12T02:34:25.742Z,26.47
2019-05-12T02:36:58.130Z,29.23
2019-05-12T02:39:29.682Z,28.60
2019-05-12T02:42:04.925Z,26.83
2019-05-12T02:44:35.206Z,27.40
2019-05-12T02:47:06.619Z,25.37
2019-05-12T02:49:38.240Z,24.77
2019-05-12T02:52:09.703Z,25.27
2019-05-12T02:54:54.479Z,25.13
2019-05-12T02:57:18.006Z,24.10
2019-05-12T02:59:53.870Z,23.17
2019-05-12T03:02:26.902Z,23.73
2019-05-12T03:05:05.403Z,22.93
2019-05-12T03:07:37.786Z,22.13
2019-05-12T03:10:10.323Z,24.97
2019-05-12T03:12:44.890Z,22.03
2019-05-12T03:15:16.512Z,21.03
2019-05-12T03:17:48.235Z,22.30
2019-05-12T03:20:20.539Z,21.83
2019-05-12T03:22:55.380Z,20.40
2019-05-12T03:25:29.985Z,21.77
2019-05-12T03:27:59.466Z,21.13
2019-05-12T03:30:37.059Z,19.17
2019-05-12T03:33:09.526Z,20.23
2019-05-12T03:35:42.901Z,20.53
2019-05-12T03:38:10.348Z,20.00
2019-05-12T03:40:44.726Z,18.53
2019-05-12T03:43:15.056Z,20.43
2019-05-12T03:45:46.607Z,18.30
2019-05-12T03:48:18.064Z,18.20
2019-05-12T03:50:50.008Z,18.83
2019-05-12T03:53:24.444Z,19.43
2019-05-12T03:55:55.379Z,16.73
2019-05-12T03:58:26.293Z,19.30
2019-05-12T04:00:58.061Z,17.90
2019-05-12T04:03:30.047Z,17.00
2019-05-12T04:06:04.456Z,18.37
2019-05-12T04:08:34.905Z,17.50
2019-05-12T04:11:07.051Z,18.97
2019-05-12T04:13:38.435Z,18.27
2019-05-12T04:16:09.957Z,17.60
2019-05-12T04:18:44.727Z,17.37
2019-05-12T04:21:15.580Z,17.37
2019-05-12T04:23:47.051Z,18.97
2019-05-12T04:26:18.758Z,17.37
2019-05-12T04:28:50.471Z,16.90
2019-05-12T04:31:24.855Z,16.50
2019-05-12T04:33:56.220Z,16.27
2019-05-12T04:36:27.844Z,14.93
2019-05-12T04:38:59.964Z,16.17
2019-05-12T04:41:31.631Z,16.53
2019-05-12T04:44:05.962Z,15.53
2019-05-12T04:46:39.724Z,14.30
2019-05-12T04:49:15.491Z,13.63
2019-05-12T04:51:45.177Z,13.60
2019-05-12T04:54:16.579Z,13.90
2019-05-12T04:56:47.988Z,13.90
2019-05-12T04:59:18.803Z,14.90
2019-05-12T05:01:50.128Z,13.33
2019-05-12T05:04:24.100Z,13.00
2019-05-12T05:06:55.115Z,14.63
2019-05-12T05:09:26.198Z,13.47
2019-05-12T05:11:57.534Z,12.97
2019-05-12T05:14:28.531Z,12.53
2019-05-12T05:16:59.233Z,12.10
2019-05-12T05:19:29.865Z,13.17
2019-05-12T05:22:01.098Z,11.73
2019-05-12T05:24:33.895Z,10.87
2019-05-12T05:27:04.582Z,11.50
2019-05-12T05:29:37.258Z,11.00
2019-05-12T05:32:14.057Z,9.50
2019-05-12T05:34:52.863Z,11.20
2019-05-12T05:37:18.132Z,11.60
2019-05-12T05:39:49.793Z,11.30
2019-05-12T05:42:22.108Z,10.40
2019-05-12T05:44:54.397Z,11.60
2019-05-12T05:47:28.586Z,10.83
2019-05-12T05:50:01.550Z,11.83
2019-05-12T05:52:37.274Z,11.80
2019-05-12T05:55:14.367Z,10.77
2019-05-12T05:57:37.933Z,11.17
2019-05-12T06:00:17.388Z,11.13
2019-05-12T06:02:43.887Z,11.80
2019-05-12T06:05:14.447Z,10.60
2019-05-12T06:07:45.589Z,11.70
2019-05-12T06:10:16.518Z,11.20
2019-05-12T06:12:50.796Z,10.53
2019-05-12T06:15:19.667Z,10.63
2019-05-12T06:17:51.379Z,9.80
2019-05-12T06:20:23.775Z,10.50
2019-05-12T06:22:57.552Z,9.73
2019-05-12T06:25:35.202Z,9.50
2019-05-12T06:28:01.382Z,8.50
2019-05-12T06:30:41.125Z,8.63
2019-05-12T06:33:04.285Z,8.60
2019-05-12T06:35:40.826Z,8.63
2019-05-12T06:38:07.405Z,8.93
2019-05-12T06:40:41.203Z,9.10
2019-05-12T06:43:10.396Z,8.70
2019-05-12T06:45:44.931Z,9.87
2019-05-12T06:48:14.153Z,11.00
2019-05-12T06:50:48.346Z,9.50
2019-05-12T06:53:25.059Z,10.60
2019-05-12T06:55:53.983Z,10.47
2019-05-12T06:58:27.547Z,10.10
2019-05-12T07:01:04.429Z,10.07
2019-05-12T07:03:31.486Z,9.83
2019-05-12T07:06:04.106Z,9.40
2019-05-12T07:08:38.221Z,10.07
2019-05-12T07:11:09.151Z,9.70
2019-05-12T07:13:40.774Z,8.07
2019-05-12T07:16:22.032Z,8.80
2019-05-12T07:18:49.832Z,8.17
2019-05-12T07:21:24.188Z,7.20
2019-05-12T07:23:53.928Z,7.70
2019-05-12T07:26:31.008Z,7.77
2019-05-12T07:29:04.243Z,7.70
2019-05-12T07:31:35.452Z,7.30
2019-05-12T07:34:07.790Z,7.30
2019-05-12T07:36:40.194Z,7.53
2019-05-12T07:39:13.540Z,6.67
2019-05-12T07:41:50.744Z,7.20
2019-05-12T07:44:25.144Z,8.17
2019-05-12T07:46:55.255Z,6.70
2019-05-12T07:49:34.069Z,6.97
2019-05-12T07:52:08.522Z,7.53
2019-05-12T07:54:40.531Z,7.47
2019-05-12T07:57:17.134Z,6.83
2019-05-12T07:59:44.701Z,6.40
2019-05-12T08:02:16.449Z,6.30
2019-05-12T08:04:48.153Z,6.20
2019-05-12T08:07:24.918Z,6.33
2019-05-12T08:09:53.658Z,7.40
2019-05-12T08:12:25.236Z,6.87
2019-05-12T08:14:59.338Z,7.43
2019-05-12T08:17:33.704Z,7.70
2019-05-12T08:20:05.553Z,6.97
2019-05-12T08:22:37.268Z,8.73
2019-05-12T08:25:09.992Z,8.27
2019-05-12T08:27:45.372Z,8.80
2019-05-12T08:30:16.100Z,9.07
2019-05-12T08:32:48.603Z,7.97
2019-05-12T08:35:26.903Z,8.37
2019-05-12T08:37:54.415Z,9.53
2019-05-12T08:40:26.962Z,8.60
2019-05-12T08:43:04.846Z,8.50
2019-05-12T08:45:36.758Z,6.90
2019-05-12T08:48:17.033Z,8.30
2019-05-12T08:50:45.336Z,7.97
2019-05-12T08:53:21.006Z,8.90
2019-05-12T08:55:48.763Z,9.13
2019-05-12T08:58:31.548Z,8.70
2019-05-12T09:00:54.960Z,8.47
2019-05-12T09:03:30.321Z,9.00
2019-05-12T09:06:00.231Z,8.20
2019-05-12T09:08:37.888Z,9.00
2019-05-12T09:11:05.510Z,9.40
2019-05-12T09:13:37.422Z,8.93
2019-05-12T09:16:09.810Z,7.83
2019-05-12T09:18:43.488Z,9.20
2019-05-12T09:21:15.181Z,9.00
2019-05-12T09:23:47.258Z,9.97
2019-05-12T09:26:23.694Z,8.93
2019-05-12T09:28:54.156Z,8.80
2019-05-12T09:31:29.504Z,9.00
2019-05-12T09:34:05.908Z,8.83
2019-05-12T09:36:33.865Z,9.70
2019-05-12T09:39:08.257Z,9.00
2019-05-12T09:41:43.867Z,9.50
2019-05-12T09:44:14.771Z,9.03
2019-05-12T09:46:47.005Z,8.00
2019-05-12T09:49:25.041Z,9.47
2019-05-12T09:51:54.286Z,10.63
2019-05-12T09:54:33.996Z,9.60
2019-05-12T09:56:59.927Z,11.10
2019-05-12T09:59:33.621Z,9.83
2019-05-12T10:02:05.411Z,9.20
2019-05-12T10:04:39.428Z,8.57
2019-05-12T10:07:13.992Z,9.30
2019-05-12T10:09:49.240Z,9.67
2019-05-12T10:12:18.551Z,9.17
2019-05-12T10:14:50.399Z,8.80
2019-05-12T10:17:26.259Z,8.77
2019-05-12T10:19:58.147Z,8.40
2019-05-12T10:22:39.960Z,10.27
2019-05-12T10:25:11.146Z,11.00
2019-05-12T10:27:44.314Z,10.13
2019-05-12T10:30:17.398Z,9.77
2019-05-12T10:32:49.122Z,9.53
2019-05-12T10:35:22.057Z,10.90
2019-05-12T10:37:54.359Z,10.63
2019-05-12T10:40:26.064Z,11.07
2019-05-12T10:42:58.112Z,10.17
2019-05-12T10:45:31.916Z,11.47
2019-05-12T10:48:03.970Z,9.77
2019-05-12T10:50:35.943Z,11.30
2019-05-12T10:53:09.883Z,11.17
2019-05-12T10:55:43.918Z,12.60
2019-05-12T10:58:14.760Z,10.43
2019-05-12T11:00:46.875Z,9.97
2019-05-12T11:03:18.307Z,9.77
2019-05-12T11:05:56.694Z,9.57
2019-05-12T11:08:26.839Z,10.33
2019-05-12T11:11:01.182Z,8.97
2019-05-12T11:13:33.693Z,9.80
2019-05-12T11:16:06.220Z,8.00
2019-05-12T11:18:38.261Z,9.40
2019-05-12T11:21:10.866Z,8.17
2019-05-12T11:23:43.661Z,8.70
2019-05-12T11:26:17.279Z,8.40
2019-05-12T11:28:48.969Z,7.70
2019-05-12T11:31:19.985Z,8.40
2019-05-12T11:33:51.207Z,8.70
2019-05-12T11:36:24.443Z,9.50
2019-05-12T11:38:55.759Z,8.30
2019-05-12T11:41:28.375Z,8.27
2019-05-12T11:44:00.095Z,7.90
2019-05-12T11:46:34.083Z,7.60
2019-05-12T11:49:05.082Z,8.17
2019-05-12T11:51:36.474Z,8.93
2019-05-12T11:54:09.156Z,9.40
2019-05-12T11:56:48.774Z,8.50
2019-05-12T11:59:15.414Z,10.30
2019-05-12T12:01:49.815Z,9.83
2019-05-12T12:04:20.966Z,11.87
2019-05-12T12:06:54.194Z,10.40
2019-05-12T12:09:26.665Z,14.40
2019-05-12T12:12:03.195Z,10.10
2019-05-12T12:14:34.817Z,20.20
2019-05-12T12:17:07.849Z,42.07
2019-05-12T12:19:46.203Z,17.53
2019-05-12T12:22:14.701Z,16.57
2019-05-12T12:24:46.562Z,15.77
2019-05-12T12:27:19.807Z,20.97
2019-05-12T12:29:51.086Z,21.27
2019-05-12T12:32:23.296Z,14.50
2019-05-12T12:34:55.207Z,13.07
2019-05-12T12:37:26.807Z,12.20
2019-05-12T12:39:59.742Z,11.47
2019-05-12T12:42:36.955Z,12.50
2019-05-12T12:45:18.499Z,11.10
2019-05-12T12:47:49.847Z,11.27
2019-05-12T12:50:26.349Z,12.37
2019-05-12T12:52:55.079Z,13.93
2019-05-12T12:55:27.178Z,11.97
2019-05-12T12:57:58.439Z,11.57
2019-05-12T13:00:45.464Z,12.03
2019-05-12T13:03:03.737Z,11.27
2019-05-12T13:05:35.367Z,10.30
2019-05-12T13:08:06.418Z,12.30
2019-05-12T13:10:40.709Z,12.17
2019-05-12T13:13:14.010Z,10.47
2019-05-12T13:15:45.387Z,12.37
2019-05-12T13:18:27.597Z,10.73
2019-05-12T13:20:53.815Z,10.43
2019-05-12T13:23:37.280Z,11.00
2019-05-12T13:25:58.443Z,10.20
2019-05-12T13:28:30.817Z,10.50
2019-05-12T13:31:09.052Z,10.60
2019-05-12T13:33:36.475Z,10.97
2019-05-12T13:36:07.564Z,9.87
2019-05-12T13:38:40.571Z,11.07
2019-05-12T13:41:16.014Z,11.73
2019-05-12T13:43:45.166Z,10.60
2019-05-12T13:46:16.888Z,10.80
2019-05-12T13:48:49.922Z,11.53
2019-05-12T13:51:24.177Z,12.13
2019-05-12T13:53:55.341Z,10.23
2019-05-12T13:56:32.768Z,10.77
2019-05-12T13:59:01.142Z,9.83
2019-05-12T14:01:40.282Z,10.70
2019-05-12T14:04:06.094Z,10.47
2019-05-12T14:06:37.931Z,8.83
2019-05-12T14:09:09.416Z,10.10
2019-05-12T14:11:43.494Z,10.90
2019-05-12T14:14:15.359Z,10.50
2019-05-12T14:16:57.434Z,10.77
2019-05-12T14:19:23.420Z,12.33
2019-05-12T14:21:55.660Z,11.73
2019-05-12T14:24:33.273Z,10.63
2019-05-12T14:27:00.407Z,9.83
2019-05-12T14:29:33.417Z,11.20
2019-05-12T14:32:05.544Z,12.30
2019-05-12T14:34:37.206Z,11.73
2019-05-12T14:37:10.357Z,11.90
2019-05-12T14:39:46.183Z,11.97
2019-05-12T14:42:17.247Z,11.10
2019-05-12T14:44:49.829Z,10.93
2019-05-12T14:47:27.253Z,11.73
2019-05-12T14:49:55.611Z,11.87
2019-05-12T14:52:27.615Z,11.83
2019-05-12T14:54:59.301Z,11.30
2019-05-12T14:57:35.361Z,11.27
2019-05-12T15:00:04.578Z,12.30
2019-05-12T15:02:36.607Z,11.97
2019-05-12T15:05:11.022Z,11.47
2019-05-12T15:07:50.933Z,11.73
2019-05-12T15:10:17.167Z,11.23
2019-05-12T15:12:49.301Z,10.73
2019-05-12T15:15:24.116Z,10.70
2019-05-12T15:18:03.445Z,10.83
2019-05-12T15:20:28.366Z,10.40
2019-05-12T15:22:59.959Z,12.20
2019-05-12T15:25:35.297Z,10.83
2019-05-12T15:28:04.615Z,10.90
2019-05-12T15:30:36.522Z,11.97
2019-05-12T15:33:08.559Z,11.50
2019-05-12T15:35:43.887Z,11.67
2019-05-12T15:38:16.801Z,11.53
2019-05-12T15:40:48.867Z,12.33
2019-05-12T15:43:21.051Z,14.53
2019-05-12T15:45:55.229Z,16.57
2019-05-12T15:48:26.264Z,15.37
2019-05-12T15:50:59.397Z,14.60
2019-05-12T15:53:33.462Z,14.30
2019-05-12T15:56:15.002Z,14.60
2019-05-12T15:58:39.248Z,14.37
2019-05-12T16:01:16.540Z,14.93
2019-05-12T16:03:45.086Z,15.30
2019-05-12T16:06:16.845Z,15.97
2019-05-12T16:08:49.031Z,14.67
2019-05-12T16:11:20.381Z,14.37
2019-05-12T16:13:56.279Z,14.47
2019-05-12T16:16:25.102Z,14.53
2019-05-12T16:18:56.526Z,13.97
2019-05-12T16:21:28.782Z,13.43
2019-05-12T16:24:03.040Z,14.70
2019-05-12T16:26:33.701Z,13.50
2019-05-12T16:29:07.409Z,14.40
2019-05-12T16:31:45.638Z,14.97
2019-05-12T16:34:13.887Z,13.90
2019-05-12T16:36:52.149Z,14.83
2019-05-12T16:39:20.763Z,13.57
2019-05-12T16:41:54.385Z,13.70
2019-05-12T16:44:26.340Z,13.30
2019-05-12T16:46:58.893Z,14.17
2019-05-12T16:49:33.597Z,14.10
2019-05-12T16:52:06.232Z,14.40
2019-05-12T16:54:38.160Z,12.40
2019-05-12T16:57:14.505Z,12.90
2019-05-12T16:59:44.948Z,13.80
2019-05-12T17:02:17.018Z,13.97
2019-05-12T17:04:48.481Z,14.83
2019-05-12T17:07:20.949Z,14.30
2019-05-12T17:09:54.374Z,14.80
2019-05-12T17:12:32.085Z,13.70
2019-05-12T17:14:59.777Z,12.57
2019-05-12T17:17:33.731Z,13.60
2019-05-12T17:20:07.022Z,15.60
2019-05-12T17:22:38.879Z,14.50
2019-05-12T17:25:14.875Z,15.07
2019-05-12T17:27:45.961Z,15.63
2019-05-12T17:30:18.053Z,15.20
2019-05-12T17:32:57.828Z,15.47
2019-05-12T17:35:29.333Z,15.07
2019-05-12T17:37:55.299Z,14.03
2019-05-12T17:40:28.137Z,12.70
2019-05-12T17:43:06.705Z,13.73
2019-05-12T17:45:34.410Z,13.53
2019-05-12T17:48:08.186Z,13.13
2019-05-12T17:50:46.598Z,15.13
2019-05-12T17:53:14.816Z,13.87
2019-05-12T17:55:51.005Z,13.77
2019-05-12T17:58:21.206Z,14.47
2019-05-12T18:00:53.060Z,13.60
2019-05-12T18:03:28.711Z,12.43
2019-05-12T18:06:00.374Z,13.87
2019-05-12T18:08:34.942Z,16.50
2019-05-12T18:11:04.748Z,14.03
2019-05-12T18:13:39.890Z,15.20
2019-05-12T18:16:11.525Z,13.97
2019-05-12T18:18:48.486Z,13.83
2019-05-12T18:21:24.017Z,15.57
2019-05-12T18:24:08.954Z,16.00
2019-05-12T18:26:34.365Z,15.97
2019-05-12T18:29:05.610Z,14.77
2019-05-12T18:31:37.358Z,14.90
2019-05-12T18:34:19.777Z,14.20
2019-05-12T18:36:55.813Z,14.37
2019-05-12T18:39:34.384Z,14.10
2019-05-12T18:42:10.614Z,15.03
2019-05-12T18:44:43.986Z,13.47
2019-05-12T18:47:23.292Z,13.50
2019-05-12T18:49:53.829Z,14.80
2019-05-12T18:52:37.720Z,13.27
2019-05-12T18:55:15.129Z,14.87
2019-05-12T18:57:51.566Z,14.90
2019-05-12T19:00:25.889Z,15.90
2019-05-12T19:02:59.691Z,15.70
2019-05-12T19:05:32.322Z,16.33
2019-05-12T19:08:20.263Z,15.10
2019-05-12T19:10:52.668Z,15.40
2019-05-12T19:13:25.668Z,15.30
2019-05-12T19:16:06.322Z,15.50
2019-05-12T19:18:37.134Z,17.03
2019-05-12T19:21:16.697Z,16.27
2019-05-12T19:23:49.601Z,14.77
2019-05-12T19:26:22.121Z,13.40
2019-05-12T19:28:57.831Z,15.20
2019-05-12T19:31:29.472Z,15.50
2019-05-12T19:34:15.785Z,15.20
2019-05-12T19:36:44.020Z,14.30
2019-05-12T19:39:11.354Z,15.23
2019-05-12T19:41:44.682Z,15.60
2019-05-12T19:44:20.067Z,14.20
2019-05-12T19:46:53.917Z,13.50
2019-05-12T19:49:28.151Z,15.30
2019-05-12T19:51:58.998Z,14.30
2019-05-12T19:54:36.310Z,13.03
2019-05-12T19:57:15.599Z,14.53
2019-05-12T19:59:51.154Z,13.90
2019-05-12T20:02:20.152Z,14.20
2019-05-12T20:04:56.463Z,13.57
2019-05-12T20:07:26.782Z,11.60
2019-05-12T20:10:00.608Z,12.63
2019-05-12T20:12:34.309Z,11.97
2019-05-12T20:15:15.005Z,11.50
2019-05-12T20:17:48.808Z,10.63
2019-05-12T20:20:32.675Z,13.00
2019-05-12T20:22:55.873Z,13.07
2019-05-12T20:25:28.194Z,11.67
2019-05-12T20:28:05.807Z,12.40
2019-05-12T20:30:34.791Z,11.80
2019-05-12T20:33:08.830Z,11.70
2019-05-12T20:35:45.144Z,10.43
2019-05-12T20:38:25.468Z,10.60
2019-05-12T20:41:01.205Z,11.40
2019-05-12T20:43:40.744Z,12.43
2019-05-12T20:46:13.091Z,10.93
2019-05-12T20:48:46.107Z,11.60
2019-05-12T20:51:20.281Z,12.17
2019-05-12T20:53:56.706Z,12.43
2019-05-12T20:56:34.441Z,13.30
2019-05-12T20:59:06.716Z,12.90
2019-05-12T21:01:39.345Z,14.80
2019-05-12T21:04:11.110Z,15.20
2019-05-12T21:06:43.248Z,14.70
2019-05-12T21:09:15.837Z,14.17
2019-05-12T21:11:47.297Z,13.70
2019-05-12T21:14:19.086Z,14.07
2019-05-12T21:16:50.769Z,13.20
2019-05-12T21:19:24.124Z,12.30
2019-05-12T21:21:58.846Z,12.97
2019-05-12T21:24:35.936Z,12.33
2019-05-12T21:27:03.895Z,14.07
2019-05-12T21:29:36.513Z,12.70
2019-05-12T21:32:11.887Z,13.33
2019-05-12T21:34:43.546Z,12.77
2019-05-12T21:37:15.594Z,13.57
2019-05-12T21:39:50.950Z,14.27
2019-05-12T21:42:20.640Z,14.47
2019-05-12T21:44:53.300Z,15.00
2019-05-12T21:47:26.594Z,14.70
2019-05-12T21:49:59.201Z,14.50
2019-05-12T21:52:37.177Z,13.97
2019-05-12T21:55:06.490Z,14.30
2019-05-12T21:57:39.099Z,14.73
2019-05-12T22:00:20.059Z,14.77
2019-05-12T22:02:53.369Z,15.07
2019-05-12T22:05:46.919Z,13.90
2019-05-12T22:07:59.126Z,14.60
2019-05-12T22:10:31.322Z,15.83
2019-05-12T22:13:06.930Z,15.63
2019-05-12T22:15:38.328Z,13.33
2019-05-12T22:18:10.631Z,14.30
2019-05-12T22:20:46.085Z,14.30
2019-05-12T22:23:15.908Z,13.80
2019-05-12T22:25:49.287Z,14.57
2019-05-12T22:28:20.862Z,15.07
2019-05-12T22:30:55.369Z,16.43
2019-05-12T22:33:26.882Z,14.80
2019-05-12T22:36:04.913Z,14.67
2019-05-12T22:38:33.822Z,15.43
2019-05-12T22:41:04.905Z,17.20
2019-05-12T22:43:40.967Z,14.97
2019-05-12T22:46:10.082Z,19.00
2019-05-12T22:48:45.138Z,14.10
2019-05-12T22:51:23.536Z,15.50
2019-05-12T22:53:49.835Z,16.97
2019-05-12T22:56:21.068Z,14.90
2019-05-12T22:59:00.083Z,15.63
2019-05-12T23:01:26.887Z,16.00
2019-05-12T23:03:58.683Z,15.50
2019-05-12T23:06:35.833Z,15.27
2019-05-12T23:09:05.477Z,16.00
2019-05-12T23:11:37.988Z,15.27
2019-05-12T23:14:12.757Z,15.50
2019-05-12T23:16:47.590Z,16.20
2019-05-12T23:19:19.593Z,14.73
2019-05-12T23:21:55.329Z,16.03
2019-05-12T23:24:30.276Z,15.70
2019-05-12T23:26:58.371Z,15.93
2019-05-12T23:29:31.155Z,16.20
2019-05-12T23:32:07.210Z,15.73
2019-05-12T23:34:37.103Z,16.03
2019-05-12T23:37:08.786Z,16.10
2019-05-12T23:39:40.377Z,16.63
2019-05-12T23:42:13.663Z,15.30
2019-05-12T23:44:45.467Z,15.30
2019-05-12T23:47:17.831Z,14.90
2019-05-12T23:49:49.478Z,15.47
2019-05-12T23:52:21.029Z,15.17
2019-05-12T23:54:52.793Z,15.60
2019-05-12T23:57:24.682Z,13.60
2019-05-12T23:59:59.470Z,14.00
